Overview Statistics Trail Chart Weather Telemetry Raw packets
 

This is the latest recevied weather packets stored in our database for station/object VE3TEJ. If no packets are shown the sender has not sent any weather packets the latest 10 day(s).

<< 94 95 96 97 98 99 100 >>
Time Temp. Humidity Pressure Rain* Wind** Luminosity Snow
1788035256 26.11° C 54% 1025.8 hPa 0 mm - - -
1788034955 26.11° C 57% 1025.6 hPa 0 mm - - -
1788034655 26.11° C 56% 1025.8 hPa 0 mm - - -
1788034607 26.11° C 56% 1025.9 hPa 0 mm - - -
1788034355 26.11° C 56% 1025.9 hPa 0 mm - - -
1788034057 26.67° C 56% 1025.9 hPa 0 mm - - -
1788033756 26.67° C 58% 1025.8 hPa 0 mm - - -
1788033456 26.11° C 57% 1025.9 hPa 0 mm - - -
1788033157 26.11° C 57% 1026 hPa 0 mm - - -
1788032856 26.11° C 56% 1026 hPa 0 mm - - -
1788032556 26.67° C 55% 1026.2 hPa 0 mm - - -
1788032256 26.67° C 55% 1026.1 hPa 0 mm - - -
1788031956 26.67° C 55% 1026.2 hPa 0 mm - - -
1788031907 26.67° C 55% 1026.2 hPa 0 mm - - -
1788031655 26.67° C 56% 1026.3 hPa 0 mm - - -
1788031355 26.67° C 56% 1026.3 hPa 0 mm - - -
1788031057 26.67° C 57% 1026.3 hPa 0 mm - - -
1788031008 26.67° C 57% 1026.2 hPa 0 mm - - -
1788030756 26.67° C 56% 1026.2 hPa 0 mm - - -
1788030456 27.22° C 54% 1026.4 hPa 0 mm - - -
1788030156 27.22° C 55% 1026.3 hPa 0 mm - - -
1788030107 27.22° C 56% 1026.2 hPa 0 mm - - -
1788029855 27.22° C 54% 1026.3 hPa 0 mm - - -
1788029555 27.22° C 54% 1026.3 hPa 0 mm - - -
1788029255 26.67° C 56% 1026.4 hPa 0 mm - - -

* Rain latest hour (hover to see other rain measurements)
** Current wind speed in m/s (hover to see current wind gust speed)